createdAt,value
2022-10-26T00:03:02.017Z,13.3
2022-10-26T00:13:02.037Z,13.4
2022-10-26T00:23:02.052Z,13.5
2022-10-26T00:33:01.991Z,13.6
2022-10-26T00:43:01.994Z,13.8
2022-10-26T00:53:01.976Z,13.9
2022-10-26T01:03:01.996Z,13.8
2022-10-26T01:13:01.959Z,13.7
2022-10-26T01:23:01.920Z,13.9
2022-10-26T01:33:01.870Z,14.1
2022-10-26T01:43:01.893Z,14.3
2022-10-26T01:53:01.888Z,14.3
2022-10-26T02:03:01.830Z,14.3
2022-10-26T02:13:01.848Z,14.3
2022-10-26T02:23:01.831Z,14.1
2022-10-26T02:33:01.780Z,13.9
2022-10-26T02:43:01.812Z,13.8
2022-10-26T02:53:01.798Z,13.9
2022-10-26T03:03:01.707Z,13.7
2022-10-26T03:13:01.745Z,13.7
2022-10-26T03:23:01.715Z,13.5
2022-10-26T03:33:01.659Z,13.4
2022-10-26T03:43:01.684Z,13.4
2022-10-26T03:53:01.634Z,13.4
2022-10-26T04:03:01.605Z,13.5
2022-10-26T04:13:01.638Z,13.3
2022-10-26T04:23:01.569Z,13.1
2022-10-26T04:33:01.559Z,12.8
2022-10-26T04:43:01.572Z,12.5
2022-10-26T04:53:01.525Z,12.3
2022-10-26T05:03:01.491Z,12.1
2022-10-26T05:13:01.529Z,11.9
2022-10-26T05:23:01.479Z,11.9
2022-10-26T05:33:01.454Z,11.8
2022-10-26T05:43:01.487Z,11.7
2022-10-26T05:53:01.440Z,11.7
2022-10-26T06:03:01.412Z,11.6
2022-10-26T06:13:01.430Z,11.5
2022-10-26T06:23:01.382Z,11.5
2022-10-26T06:33:06.303Z,11.4
2022-10-26T06:43:01.400Z,11.4
2022-10-26T06:53:01.325Z,11.5
2022-10-26T07:03:01.394Z,11.5
2022-10-26T07:13:01.332Z,11.6
2022-10-26T07:23:01.296Z,11.8
2022-10-26T07:33:01.273Z,11.9
2022-10-26T07:43:01.278Z,12.2
2022-10-26T07:53:01.229Z,12.5
2022-10-26T08:03:01.212Z,12.8
2022-10-26T08:13:01.239Z,13.1
2022-10-26T08:23:01.232Z,13.5
2022-10-26T08:33:01.166Z,13.9
2022-10-26T08:43:01.152Z,14.2
2022-10-26T08:53:01.149Z,14.7
2022-10-26T09:03:01.118Z,15
2022-10-26T09:13:01.093Z,15.4
2022-10-26T09:23:01.106Z,16
2022-10-26T09:33:01.060Z,16.4
2022-10-26T09:43:01.047Z,17.9
2022-10-26T09:53:01.080Z,20.2
2022-10-26T10:03:01.073Z,22.1
2022-10-26T10:13:00.990Z,23.5
2022-10-26T10:23:01.010Z,24.3
2022-10-26T10:33:00.974Z,25.7
2022-10-26T10:43:00.925Z,26.4
2022-10-26T10:53:00.949Z,27.1
2022-10-26T11:03:00.886Z,26.9
2022-10-26T11:13:00.850Z,27
2022-10-26T11:23:00.923Z,27.8
2022-10-26T11:33:00.810Z,28.3
2022-10-26T11:43:00.808Z,27.8
2022-10-26T11:53:00.792Z,28.2
2022-10-26T12:03:00.747Z,28.4
2022-10-26T12:13:00.730Z,28
2022-10-26T12:23:00.740Z,28
2022-10-26T12:33:00.696Z,28.2
2022-10-26T12:43:00.646Z,28.6
2022-10-26T12:53:00.678Z,29.1
2022-10-26T13:03:00.619Z,29.2
2022-10-26T13:13:00.637Z,29.5
2022-10-26T13:33:00.552Z,30
2022-10-26T13:43:00.563Z,30.4
2022-10-26T13:53:00.544Z,29.9
2022-10-26T14:03:00.483Z,30.2
2022-10-26T14:13:00.509Z,30
2022-10-26T14:23:00.487Z,29.9
2022-10-26T14:33:00.421Z,29.6
2022-10-26T14:43:00.427Z,29.2
2022-10-26T14:53:00.402Z,28.1
2022-10-26T15:03:00.360Z,26.9
2022-10-26T15:13:00.364Z,25.9
2022-10-26T15:23:00.366Z,25
2022-10-26T15:33:00.292Z,24
2022-10-26T15:43:00.319Z,23.1
2022-10-26T15:53:00.292Z,22.2
2022-10-26T16:03:00.224Z,21.3
2022-10-26T16:13:00.245Z,20.8
2022-10-26T16:23:00.237Z,20.6
2022-10-26T16:33:00.181Z,20.4
2022-10-26T16:43:00.187Z,20.1
2022-10-26T16:53:00.163Z,19.9
2022-10-26T17:03:00.104Z,19.6
2022-10-26T17:13:00.119Z,19.3
2022-10-26T17:23:00.095Z,19.1
2022-10-26T17:33:00.040Z,19
2022-10-26T17:43:00.091Z,18.8
2022-10-26T17:53:00.004Z,18.7
2022-10-26T18:02:59.985Z,18.5
2022-10-26T18:13:00.007Z,18.4
2022-10-26T18:22:59.960Z,18.2
2022-10-26T18:32:59.927Z,18
2022-10-26T18:42:59.952Z,17.9
2022-10-26T18:52:59.888Z,17.8
2022-10-26T19:02:59.866Z,17.6
2022-10-26T19:12:59.881Z,17.4
2022-10-26T19:22:59.821Z,17.1
2022-10-26T19:32:59.814Z,16.9
2022-10-26T19:42:59.819Z,16.7
2022-10-26T19:52:59.780Z,16.5
2022-10-26T20:02:59.742Z,16.2
2022-10-26T20:12:59.757Z,15.8
2022-10-26T20:22:59.721Z,15.6
2022-10-26T20:32:59.692Z,15.5
2022-10-26T20:42:59.714Z,15.3
2022-10-26T21:02:59.634Z,14.8
2022-10-26T21:12:59.672Z,14.7
2022-10-26T21:22:59.582Z,14.6
2022-10-26T21:32:59.591Z,14.4
2022-10-26T21:42:59.614Z,14.2
2022-10-26T21:52:59.567Z,14.1
2022-10-26T22:02:59.536Z,14
2022-10-26T22:12:59.519Z,14
2022-10-26T22:22:59.609Z,13.8
2022-10-26T22:32:59.489Z,13.6
2022-10-26T22:42:59.462Z,13.4
2022-10-26T22:52:59.481Z,13.4
2022-10-26T23:02:59.423Z,13.4
2022-10-26T23:12:59.442Z,13.2
2022-10-26T23:22:59.446Z,12.9
2022-10-26T23:32:59.379Z,12.8
2022-10-26T23:42:59.356Z,12.7
2022-10-26T23:52:59.601Z,12.7
